sensor_id;sensor_type;location;lat;lon;timestamp;pressure;altitude;pressure_sealevel;temperature;humidity
51876;BME280;34054;52.100;5.116;2022-08-03T00:00:28;101321.09;;;21.21;77.89
51876;BME280;34054;52.100;5.116;2022-08-03T00:01:00;101296.28;;;20.98;78.56
51876;BME280;34054;52.100;5.116;2022-08-03T00:01:32;101323.22;;;21.24;78.84
51876;BME280;34054;52.100;5.116;2022-08-03T00:02:04;101317.72;;;21.24;78.39
51876;BME280;34054;52.100;5.116;2022-08-03T00:02:36;101326.63;;;21.29;78.20
51876;BME280;34054;52.100;5.116;2022-08-03T00:03:08;101307.19;;;21.34;78.03
51876;BME280;34054;52.100;5.116;2022-08-03T00:03:40;101298.03;;;21.25;77.83
51876;BME280;34054;52.100;5.116;2022-08-03T00:04:13;101325.06;;;21.37;77.87
51876;BME280;34054;52.100;5.116;2022-08-03T00:04:45;101306.00;;;21.27;78.07
51876;BME280;34054;52.100;5.116;2022-08-03T00:05:17;101331.56;;;21.41;78.05
51876;BME280;34054;52.100;5.116;2022-08-03T00:05:49;101328.00;;;21.41;77.84
51876;BME280;34054;52.100;5.116;2022-08-03T00:06:20;101329.13;;;21.40;77.84
51876;BME280;34054;52.100;5.116;2022-08-03T00:06:53;101326.34;;;21.31;77.82
51876;BME280;34054;52.100;5.116;2022-08-03T00:07:24;101314.78;;;21.29;78.07
51876;BME280;34054;52.100;5.116;2022-08-03T00:07:56;101293.25;;;21.08;77.99
51876;BME280;34054;52.100;5.116;2022-08-03T00:08:28;101304.97;;;21.14;78.15
51876;BME280;34054;52.100;5.116;2022-08-03T00:09:01;101324.75;;;21.07;78.67
51876;BME280;34054;52.100;5.116;2022-08-03T00:09:32;101316.69;;;20.88;79.47
51876;BME280;34054;52.100;5.116;2022-08-03T00:10:04;101311.81;;;20.85;79.50
51876;BME280;34054;52.100;5.116;2022-08-03T00:10:37;101313.31;;;20.91;79.20
51876;BME280;34054;52.100;5.116;2022-08-03T00:11:09;101328.59;;;20.97;80.00
51876;BME280;34054;52.100;5.116;2022-08-03T00:11:41;101316.09;;;21.00;79.49
51876;BME280;34054;52.100;5.116;2022-08-03T00:12:13;101312.03;;;20.97;79.41
51876;BME280;34054;52.100;5.116;2022-08-03T00:12:45;101319.72;;;21.09;79.42
51876;BME280;34054;52.100;5.116;2022-08-03T00:13:16;101303.41;;;20.99;79.27
51876;BME280;34054;52.100;5.116;2022-08-03T00:13:49;101317.66;;;21.15;78.92
51876;BME280;34054;52.100;5.116;2022-08-03T00:14:21;101319.63;;;21.23;78.55
51876;BME280;34054;52.100;5.116;2022-08-03T00:14:52;101319.00;;;21.26;78.24
51876;BME280;34054;52.100;5.116;2022-08-03T00:15:25;101298.50;;;21.18;78.16
51876;BME280;34054;52.100;5.116;2022-08-03T00:15:57;101325.69;;;21.34;78.37
51876;BME280;34054;52.100;5.116;2022-08-03T00:16:28;101326.19;;;21.36;78.01
51876;BME280;34054;52.100;5.116;2022-08-03T00:17:01;101327.97;;;21.32;77.95
51876;BME280;34054;52.100;5.116;2022-08-03T00:17:33;101315.25;;;21.22;78.09
51876;BME280;34054;52.100;5.116;2022-08-03T00:18:05;101331.09;;;21.39;77.93
51876;BME280;34054;52.100;5.116;2022-08-03T00:18:37;101313.66;;;21.30;77.57
51876;BME280;34054;52.100;5.116;2022-08-03T00:19:09;101312.34;;;21.27;78.02
51876;BME280;34054;52.100;5.116;2022-08-03T00:19:42;101275.69;;;21.04;77.89
51876;BME280;34054;52.100;5.116;2022-08-03T00:20:15;101328.75;;;21.24;78.25
51876;BME280;34054;52.100;5.116;2022-08-03T00:20:46;101325.66;;;21.25;78.27
51876;BME280;34054;52.100;5.116;2022-08-03T00:21:18;101319.59;;;21.14;78.61
51876;BME280;34054;52.100;5.116;2022-08-03T00:21:50;101313.31;;;21.23;78.53
51876;BME280;34054;52.100;5.116;2022-08-03T00:22:22;101302.09;;;21.28;78.20
51876;BME280;34054;52.100;5.116;2022-08-03T00:22:53;101327.38;;;21.44;77.68
51876;BME280;34054;52.100;5.116;2022-08-03T00:23:26;101317.28;;;21.39;77.64
51876;BME280;34054;52.100;5.116;2022-08-03T00:23:58;101307.28;;;21.21;78.24
51876;BME280;34054;52.100;5.116;2022-08-03T00:24:30;101326.94;;;21.19;78.64
51876;BME280;34054;52.100;5.116;2022-08-03T00:25:02;101326.13;;;21.18;78.65
51876;BME280;34054;52.100;5.116;2022-08-03T00:25:34;101324.81;;;21.16;78.89
51876;BME280;34054;52.100;5.116;2022-08-03T00:26:07;101328.38;;;21.16;79.16
51876;BME280;34054;52.100;5.116;2022-08-03T00:26:39;101317.72;;;21.24;78.75
51876;BME280;34054;52.100;5.116;2022-08-03T00:27:10;101306.84;;;21.27;78.56
51876;BME280;34054;52.100;5.116;2022-08-03T00:27:43;101322.81;;;21.39;78.34
51876;BME280;34054;52.100;5.116;2022-08-03T00:28:14;101306.59;;;21.15;78.51
51876;BME280;34054;52.100;5.116;2022-08-03T00:28:47;101319.59;;;21.14;79.08
51876;BME280;34054;52.100;5.116;2022-08-03T00:29:19;101300.38;;;21.00;79.22
51876;BME280;34054;52.100;5.116;2022-08-03T00:29:51;101319.91;;;21.13;79.22
51876;BME280;34054;52.100;5.116;2022-08-03T00:30:22;101318.56;;;21.01;79.48
51876;BME280;34054;52.100;5.116;2022-08-03T00:30:55;101323.50;;;21.13;79.61
51876;BME280;34054;52.100;5.116;2022-08-03T00:31:26;101313.78;;;21.25;79.08
51876;BME280;34054;52.100;5.116;2022-08-03T00:31:58;101291.66;;;21.16;78.60
51876;BME280;34054;52.100;5.116;2022-08-03T00:32:30;101315.66;;;21.38;78.45
51876;BME280;34054;52.100;5.116;2022-08-03T00:33:02;101312.38;;;21.36;78.06
51876;BME280;34054;52.100;5.116;2022-08-03T00:33:34;101303.75;;;21.29;78.29
51876;BME280;34054;52.100;5.116;2022-08-03T00:34:06;101314.25;;;21.18;78.82
51876;BME280;34054;52.100;5.116;2022-08-03T00:34:38;101319.63;;;21.23;78.83
51876;BME280;34054;52.100;5.116;2022-08-03T00:35:11;101319.97;;;21.22;79.02
51876;BME280;34054;52.100;5.116;2022-08-03T00:35:43;101313.31;;;21.23;78.67
51876;BME280;34054;52.100;5.116;2022-08-03T00:36:15;101319.00;;;21.26;78.79
51876;BME280;34054;52.100;5.116;2022-08-03T00:36:47;101323.75;;;21.34;78.10
51876;BME280;34054;52.100;5.116;2022-08-03T00:37:18;101300.66;;;21.30;78.14
51876;BME280;34054;52.100;5.116;2022-08-03T00:37:50;101312.22;;;21.41;77.83
51876;BME280;34054;52.100;5.116;2022-08-03T00:38:23;101315.28;;;21.31;78.39
51876;BME280;34054;52.100;5.116;2022-08-03T00:38:55;101317.22;;;21.30;78.20
51876;BME280;34054;52.100;5.116;2022-08-03T00:39:26;101298.53;;;21.27;78.29
51876;BME280;34054;52.100;5.116;2022-08-03T00:39:59;101318.72;;;21.37;77.94
51876;BME280;34054;52.100;5.116;2022-08-03T00:40:30;101313.00;;;21.33;78.32
51876;BME280;34054;52.100;5.116;2022-08-03T00:41:03;101312.06;;;21.38;78.11
51876;BME280;34054;52.100;5.116;2022-08-03T00:41:35;101310.81;;;21.53;77.82
51876;BME280;34054;52.100;5.116;2022-08-03T00:42:07;101312.19;;;21.64;77.51
51876;BME280;34054;52.100;5.116;2022-08-03T00:42:49;101311.13;;;21.51;77.25
51876;BME280;34054;52.100;5.116;2022-08-03T00:43:24;101311.63;;;21.53;77.41
51876;BME280;34054;52.100;5.116;2022-08-03T00:43:56;101314.28;;;21.58;77.58
51876;BME280;34054;52.100;5.116;2022-08-03T00:44:28;101303.81;;;21.55;77.06
51876;BME280;34054;52.100;5.116;2022-08-03T00:45:01;101313.22;;;21.45;77.59
51876;BME280;34054;52.100;5.116;2022-08-03T00:45:34;101310.75;;;21.35;78.01
51876;BME280;34054;52.100;5.116;2022-08-03T00:46:06;101226.09;;;20.90;78.15
51876;BME280;34054;52.100;5.116;2022-08-03T00:46:39;101316.84;;;21.55;77.83
51876;BME280;34054;52.100;5.116;2022-08-03T00:47:11;101302.53;;;21.53;77.29
51876;BME280;34054;52.100;5.116;2022-08-03T00:47:42;101309.84;;;21.57;77.03
51876;BME280;34054;52.100;5.116;2022-08-03T00:48:14;101298.13;;;21.52;77.11
51876;BME280;34054;52.100;5.116;2022-08-03T00:48:47;101311.31;;;21.55;77.04
51876;BME280;34054;52.100;5.116;2022-08-03T00:49:19;101295.84;;;21.45;77.80
51876;BME280;34054;52.100;5.116;2022-08-03T00:49:50;101309.25;;;21.60;77.58
51876;BME280;34054;52.100;5.116;2022-08-03T00:50:26;101294.72;;;21.55;77.30
51876;BME280;34054;52.100;5.116;2022-08-03T00:50:59;101287.72;;;21.48;77.21
51876;BME280;34054;52.100;5.116;2022-08-03T00:51:32;101299.31;;;21.59;77.08
51876;BME280;34054;52.100;5.116;2022-08-03T00:52:05;101268.69;;;21.38;77.24
51876;BME280;34054;52.100;5.116;2022-08-03T00:52:39;101267.22;;;21.41;76.99
51876;BME280;34054;52.100;5.116;2022-08-03T00:53:11;101308.59;;;21.63;76.97
51876;BME280;34054;52.100;5.116;2022-08-03T00:53:43;101313.81;;;21.65;77.22
51876;BME280;34054;52.100;5.116;2022-08-03T00:54:16;101312.53;;;21.71;77.06
51876;BME280;34054;52.100;5.116;2022-08-03T00:54:49;101299.66;;;21.67;76.83
51876;BME280;34054;52.100;5.116;2022-08-03T00:55:21;101312.69;;;21.66;76.76
51876;BME280;34054;52.100;5.116;2022-08-03T00:55:53;101314.16;;;21.72;76.83
51876;BME280;34054;52.100;5.116;2022-08-03T00:56:26;101306.19;;;21.71;76.74
51876;BME280;34054;52.100;5.116;2022-08-03T00:56:57;101314.28;;;21.58;77.04
51876;BME280;34054;52.100;5.116;2022-08-03T00:57:30;101308.53;;;21.55;77.60
51876;BME280;34054;52.100;5.116;2022-08-03T00:58:04;101303.66;;;21.52;77.72
51876;BME280;34054;52.100;5.116;2022-08-03T00:58:36;101297.38;;;21.60;77.62
51876;BME280;34054;52.100;5.116;2022-08-03T00:59:09;101315.47;;;21.75;77.08
51876;BME280;34054;52.100;5.116;2022-08-03T00:59:41;101307.78;;;21.63;77.45
51876;BME280;34054;52.100;5.116;2022-08-03T01:00:16;101308.19;;;21.47;77.69
51876;BME280;34054;52.100;5.116;2022-08-03T01:00:50;101310.28;;;21.42;78.24
51876;BME280;34054;52.100;5.116;2022-08-03T01:01:22;101308.13;;;21.30;78.74
51876;BME280;34054;52.100;5.116;2022-08-03T01:01:54;101310.13;;;21.38;78.83
51876;BME280;34054;52.100;5.116;2022-08-03T01:02:26;101309.66;;;21.45;78.14
51876;BME280;34054;52.100;5.116;2022-08-03T01:02:59;101267.78;;;21.20;78.43
51876;BME280;34054;52.100;5.116;2022-08-03T01:03:30;101304.91;;;21.37;78.23
51876;BME280;34054;52.100;5.116;2022-08-03T01:04:02;101300.16;;;21.28;78.90
51876;BME280;34054;52.100;5.116;2022-08-03T01:04:34;101294.75;;;21.14;79.47
51876;BME280;34054;52.100;5.116;2022-08-03T01:05:06;101304.88;;;21.28;79.39
51876;BME280;34054;52.100;5.116;2022-08-03T01:05:49;101305.81;;;21.14;79.72
51876;BME280;34054;52.100;5.116;2022-08-03T01:06:33;101305.13;;;21.09;79.87
51876;BME280;34054;52.100;5.116;2022-08-03T01:07:17;101310.81;;;21.12;80.22
51876;BME280;34054;52.100;5.116;2022-08-03T01:08:01;101306.94;;;21.22;79.75
51876;BME280;34054;52.100;5.116;2022-08-03T01:08:43;101299.59;;;21.09;80.34
51876;BME280;34054;52.100;5.116;2022-08-03T01:09:24;101209.00;;;20.56;80.07
51876;BME280;34054;52.100;5.116;2022-08-03T01:10:14;101306.44;;;21.20;79.68
51876;BME280;34054;52.100;5.116;2022-08-03T01:11:02;101302.94;;;20.97;80.42
51876;BME280;34054;52.100;5.116;2022-08-03T01:11:46;101300.00;;;20.93;81.05
51876;BME280;34054;52.100;5.116;2022-08-03T01:12:29;101301.31;;;20.96;81.08
51876;BME280;34054;52.100;5.116;2022-08-03T01:13:16;101311.81;;;20.85;81.41
51876;BME280;34054;52.100;5.116;2022-08-03T01:14:02;101297.38;;;20.88;81.47
51876;BME280;34054;52.100;5.116;2022-08-03T01:14:43;101302.13;;;20.96;81.32
51876;BME280;34054;52.100;5.116;2022-08-03T01:15:28;101291.25;;;21.00;80.77
51876;BME280;34054;52.100;5.116;2022-08-03T01:16:08;101309.50;;;21.10;80.65
51876;BME280;34054;52.100;5.116;2022-08-03T01:16:51;101300.19;;;20.97;80.91
51876;BME280;34054;52.100;5.116;2022-08-03T01:17:35;101307.13;;;20.94;81.28
51876;BME280;34054;52.100;5.116;2022-08-03T01:18:18;101285.81;;;20.86;81.32
51876;BME280;34054;52.100;5.116;2022-08-03T01:19:01;101306.19;;;20.99;81.33
51876;BME280;34054;52.100;5.116;2022-08-03T01:19:47;101219.06;;;20.52;80.69
51876;BME280;34054;52.100;5.116;2022-08-03T01:20:24;101298.66;;;20.91;81.23
51876;BME280;34054;52.100;5.116;2022-08-03T01:21:08;101283.81;;;20.78;81.49
51876;BME280;34054;52.100;5.116;2022-08-03T01:21:58;101301.31;;;20.96;81.16
51876;BME280;34054;52.100;5.116;2022-08-03T01:22:59;101295.03;;;21.04;80.59
51876;BME280;34054;52.100;5.116;2022-08-03T01:23:54;101272.34;;;20.84;80.76
51876;BME280;34054;52.100;5.116;2022-08-03T01:24:39;101286.97;;;20.85;81.13
51876;BME280;34054;52.100;5.116;2022-08-03T01:25:27;101276.22;;;20.61;81.85
51876;BME280;34054;52.100;5.116;2022-08-03T01:26:18;101280.72;;;20.56;82.07
51876;BME280;34054;52.100;5.116;2022-08-03T01:27:08;101285.06;;;20.49;83.01
51876;BME280;34054;52.100;5.116;2022-08-03T01:27:53;101290.66;;;20.58;82.56
51876;BME280;34054;52.100;5.116;2022-08-03T01:28:57;101281.13;;;20.64;82.72
51876;BME280;34054;52.100;5.116;2022-08-03T01:29:57;101291.97;;;20.83;81.78
51876;BME280;34054;52.100;5.116;2022-08-03T01:30:34;101278.03;;;20.65;81.79
51876;BME280;34054;52.100;5.116;2022-08-03T01:31:10;101265.19;;;20.61;81.98
51876;BME280;34054;52.100;5.116;2022-08-03T01:31:49;101290.78;;;20.75;81.87
51876;BME280;34054;52.100;5.116;2022-08-03T01:32:40;101296.00;;;20.77;81.89
51876;BME280;34054;52.100;5.116;2022-08-03T01:33:20;101294.00;;;20.68;82.07
51876;BME280;34054;52.100;5.116;2022-08-03T01:33:58;101295.97;;;20.54;82.76
51876;BME280;34054;52.100;5.116;2022-08-03T01:34:38;101279.59;;;20.58;82.96
51876;BME280;34054;52.100;5.116;2022-08-03T01:35:18;101293.16;;;20.68;82.76
51876;BME280;34054;52.100;5.116;2022-08-03T01:35:59;101274.66;;;20.46;82.79
51876;BME280;34054;52.100;5.116;2022-08-03T01:36:38;101264.75;;;20.45;82.89
51876;BME280;34054;52.100;5.116;2022-08-03T01:37:15;101290.97;;;20.56;82.69
51876;BME280;34054;52.100;5.116;2022-08-03T01:37:56;101294.16;;;20.72;82.55
51876;BME280;34054;52.100;5.116;2022-08-03T01:38:36;101286.75;;;20.81;81.90
51876;BME280;34054;52.100;5.116;2022-08-03T01:39:12;101294.38;;;20.76;81.85
51876;BME280;34054;52.100;5.116;2022-08-03T01:39:46;101285.81;;;20.63;82.66
51876;BME280;34054;52.100;5.116;2022-08-03T01:40:23;101296.84;;;20.63;82.94
51876;BME280;34054;52.100;5.116;2022-08-03T01:41:02;101262.28;;;20.34;83.19
51876;BME280;34054;52.100;5.116;2022-08-03T01:41:41;101291.22;;;20.68;82.62
51876;BME280;34054;52.100;5.116;2022-08-03T01:42:18;101294.06;;;20.77;82.29
51876;BME280;34054;52.100;5.116;2022-08-03T01:42:53;101290.03;;;20.83;82.15
51876;BME280;34054;52.100;5.116;2022-08-03T01:43:28;101288.28;;;20.88;81.86
51876;BME280;34054;52.100;5.116;2022-08-03T01:44:02;101282.94;;;20.91;81.62
51876;BME280;34054;52.100;5.116;2022-08-03T01:44:39;101297.72;;;20.95;81.71
51876;BME280;34054;52.100;5.116;2022-08-03T01:45:17;101274.66;;;20.91;81.34
51876;BME280;34054;52.100;5.116;2022-08-03T01:45:51;101301.34;;;21.05;81.14
51876;BME280;34054;52.100;5.116;2022-08-03T01:46:25;101286.03;;;20.90;81.65
51876;BME280;34054;52.100;5.116;2022-08-03T01:47:01;101285.00;;;20.85;81.60
51876;BME280;34054;52.100;5.116;2022-08-03T01:47:37;101293.28;;;20.85;81.88
51876;BME280;34054;52.100;5.116;2022-08-03T01:48:10;101292.03;;;20.92;82.05
51876;BME280;34054;52.100;5.116;2022-08-03T01:48:47;101289.53;;;20.81;82.22
51876;BME280;34054;52.100;5.116;2022-08-03T01:49:20;101240.09;;;20.48;82.47
51876;BME280;34054;52.100;5.116;2022-08-03T01:49:53;101210.41;;;20.22;82.61
51876;BME280;34054;52.100;5.116;2022-08-03T01:50:29;101274.28;;;20.61;82.92
51876;BME280;34054;52.100;5.116;2022-08-03T01:51:05;101284.75;;;20.73;82.67
51876;BME280;34054;52.100;5.116;2022-08-03T01:51:41;101288.94;;;20.70;83.19
51876;BME280;34054;52.100;5.116;2022-08-03T01:52:17;101270.72;;;20.61;82.99
51876;BME280;34054;52.100;5.116;2022-08-03T01:52:52;101284.31;;;20.57;83.77
51876;BME280;34054;52.100;5.116;2022-08-03T01:53:28;101289.69;;;20.62;83.99
51876;BME280;34054;52.100;5.116;2022-08-03T01:54:03;101282.44;;;20.66;83.45
51876;BME280;34054;52.100;5.116;2022-08-03T01:54:41;101280.19;;;20.68;83.48
51876;BME280;34054;52.100;5.116;2022-08-03T01:55:18;101267.00;;;20.65;83.45
51876;BME280;34054;52.100;5.116;2022-08-03T01:55:54;101279.47;;;20.77;83.25
51876;BME280;34054;52.100;5.116;2022-08-03T01:56:28;101276.69;;;20.77;83.17
51876;BME280;34054;52.100;5.116;2022-08-03T01:57:03;101266.66;;;20.58;83.09
51876;BME280;34054;52.100;5.116;2022-08-03T01:57:37;101288.16;;;20.70;83.21
51876;BME280;34054;52.100;5.116;2022-08-03T01:58:14;101274.56;;;20.74;83.24
51876;BME280;34054;52.100;5.116;2022-08-03T01:58:50;101272.88;;;20.73;82.89
51876;BME280;34054;52.100;5.116;2022-08-03T01:59:24;101278.00;;;20.79;83.15
51876;BME280;34054;52.100;5.116;2022-08-03T02:00:00;101280.78;;;20.88;82.99
51876;BME280;34054;52.100;5.116;2022-08-03T02:00:37;101285.72;;;21.00;82.71
51876;BME280;34054;52.100;5.116;2022-08-03T02:01:11;101285.59;;;21.05;82.30
51876;BME280;34054;52.100;5.116;2022-08-03T02:01:47;101270.78;;;21.01;81.78
51876;BME280;34054;52.100;5.116;2022-08-03T02:02:21;101274.22;;;20.98;82.12
51876;BME280;34054;52.100;5.116;2022-08-03T02:02:55;101277.16;;;21.01;81.74
51876;BME280;34054;52.100;5.116;2022-08-03T02:03:31;101249.13;;;20.85;81.97
51876;BME280;34054;52.100;5.116;2022-08-03T02:04:07;101279.75;;;21.07;81.73
51876;BME280;34054;52.100;5.116;2022-08-03T02:04:44;101249.81;;;20.91;81.40
51876;BME280;34054;52.100;5.116;2022-08-03T02:05:19;101253.53;;;20.95;81.50
51876;BME280;34054;52.100;5.116;2022-08-03T02:05:53;101285.34;;;21.15;81.18
51876;BME280;34054;52.100;5.116;2022-08-03T02:06:29;101280.19;;;20.91;81.54
51876;BME280;34054;52.100;5.116;2022-08-03T02:07:04;101281.31;;;20.90;81.72
51876;BME280;34054;52.100;5.116;2022-08-03T02:07:39;101257.09;;;20.64;82.07
51876;BME280;34054;52.100;5.116;2022-08-03T02:08:15;101290.72;;;20.66;82.97
51876;BME280;34054;52.100;5.116;2022-08-03T02:08:51;101274.78;;;20.63;82.91
51876;BME280;34054;52.100;5.116;2022-08-03T02:09:25;101284.00;;;20.59;83.23
51876;BME280;34054;52.100;5.116;2022-08-03T02:10:02;101268.97;;;20.42;83.83
51876;BME280;34054;52.100;5.116;2022-08-03T02:10:37;101286.53;;;20.46;83.75
51876;BME280;34054;52.100;5.116;2022-08-03T02:11:13;101283.13;;;20.49;84.00
51876;BME280;34054;52.100;5.116;2022-08-03T02:11:46;101287.28;;;20.61;83.86
51876;BME280;34054;52.100;5.116;2022-08-03T02:12:21;101279.75;;;20.52;83.74
51876;BME280;34054;52.100;5.116;2022-08-03T02:12:56;101261.94;;;20.36;83.83
51876;BME280;34054;52.100;5.116;2022-08-03T02:13:33;101276.53;;;20.36;83.94
51876;BME280;34054;52.100;5.116;2022-08-03T02:14:07;101280.50;;;20.44;84.10
51876;BME280;34054;52.100;5.116;2022-08-03T02:14:42;101277.09;;;20.47;84.22
51876;BME280;34054;52.100;5.116;2022-08-03T02:15:17;101278.63;;;20.53;83.94
51876;BME280;34054;52.100;5.116;2022-08-03T02:15:52;101288.03;;;20.52;83.65
51876;BME280;34054;52.100;5.116;2022-08-03T02:16:27;101276.44;;;20.42;83.69
51876;BME280;34054;52.100;5.116;2022-08-03T02:17:01;101283.63;;;20.29;84.48
51876;BME280;34054;52.100;5.116;2022-08-03T02:17:36;101277.59;;;20.27;84.88
51876;BME280;34054;52.100;5.116;2022-08-03T02:18:10;101275.53;;;20.32;84.54
51876;BME280;34054;52.100;5.116;2022-08-03T02:18:46;101281.16;;;20.27;84.56
51876;BME280;34054;52.100;5.116;2022-08-03T02:19:20;101279.41;;;20.08;85.29
51876;BME280;34054;52.100;5.116;2022-08-03T02:19:55;101263.06;;;20.12;85.32
51876;BME280;34054;52.100;5.116;2022-08-03T02:20:32;101277.47;;;20.32;84.86
51876;BME280;34054;52.100;5.116;2022-08-03T02:21:08;101273.59;;;20.33;84.59
51876;BME280;34054;52.100;5.116;2022-08-03T02:21:42;101282.38;;;20.35;84.65
51876;BME280;34054;52.100;5.116;2022-08-03T02:22:16;101274.91;;;20.35;84.63
51876;BME280;34054;52.100;5.116;2022-08-03T02:22:49;101272.03;;;20.40;84.11
51876;BME280;34054;52.100;5.116;2022-08-03T02:23:21;101275.09;;;20.39;84.21
51876;BME280;34054;52.100;5.116;2022-08-03T02:23:52;101274.47;;;20.42;84.03
51876;BME280;34054;52.100;5.116;2022-08-03T02:24:24;101275.75;;;20.36;84.26
51876;BME280;34054;52.100;5.116;2022-08-03T02:24:56;101274.41;;;20.33;84.36
51876;BME280;34054;52.100;5.116;2022-08-03T02:25:29;101249.84;;;20.23;84.15
51876;BME280;34054;52.100;5.116;2022-08-03T02:26:03;101251.38;;;20.15;84.56
51876;BME280;34054;52.100;5.116;2022-08-03T02:26:40;101250.03;;;20.04;84.97
51876;BME280;34054;52.100;5.116;2022-08-03T02:27:19;101253.63;;;20.13;84.95
51876;BME280;34054;52.100;5.116;2022-08-03T02:27:55;101273.09;;;20.31;84.32
51876;BME280;34054;52.100;5.116;2022-08-03T02:28:34;101270.31;;;20.31;84.55
51876;BME280;34054;52.100;5.116;2022-08-03T02:29:11;101273.59;;;20.33;84.10
51876;BME280;34054;52.100;5.116;2022-08-03T02:29:51;101266.72;;;20.21;84.39
51876;BME280;34054;52.100;5.116;2022-08-03T02:30:32;101275.09;;;20.16;84.31
51876;BME280;34054;52.100;5.116;2022-08-03T02:31:12;101264.06;;;20.16;84.36
51876;BME280;34054;52.100;5.116;2022-08-03T02:31:48;101248.75;;;20.10;84.51
51876;BME280;34054;52.100;5.116;2022-08-03T02:32:28;101267.09;;;20.29;84.33
51876;BME280;34054;52.100;5.116;2022-08-03T02:33:03;101268.63;;;20.21;84.22
51876;BME280;34054;52.100;5.116;2022-08-03T02:33:42;101261.66;;;20.01;84.73
51876;BME280;34054;52.100;5.116;2022-08-03T02:34:20;101267.56;;;20.08;84.85
51876;BME280;34054;52.100;5.116;2022-08-03T02:34:58;101253.97;;;20.12;84.78
51876;BME280;34054;52.100;5.116;2022-08-03T02:35:34;101256.47;;;20.22;83.99
51876;BME280;34054;52.100;5.116;2022-08-03T02:36:07;101264.53;;;20.32;83.88
51876;BME280;34054;52.100;5.116;2022-08-03T02:36:43;101265.50;;;20.36;83.76
51876;BME280;34054;52.100;5.116;2022-08-03T02:37:25;101260.94;;;20.32;83.84
51876;BME280;34054;52.100;5.116;2022-08-03T02:38:02;101263.50;;;20.28;83.94
51876;BME280;34054;52.100;5.116;2022-08-03T02:38:38;101251.91;;;20.17;84.36
51876;BME280;34054;52.100;5.116;2022-08-03T02:39:16;101258.63;;;20.25;84.26
51876;BME280;34054;52.100;5.116;2022-08-03T02:39:55;101116.97;;;19.39;83.80
51876;BME280;34054;52.100;5.116;2022-08-03T02:40:31;101265.31;;;20.33;84.09
51876;BME280;34054;52.100;5.116;2022-08-03T02:41:08;101249.66;;;20.19;83.71
51876;BME280;34054;52.100;5.116;2022-08-03T02:41:48;101257.97;;;20.28;84.13
51876;BME280;34054;52.100;5.116;2022-08-03T02:42:23;101258.75;;;20.43;83.92
51876;BME280;34054;52.100;5.116;2022-08-03T02:43:06;101255.66;;;20.44;83.13
51876;BME280;34054;52.100;5.116;2022-08-03T02:43:42;101254.78;;;20.35;83.14
51876;BME280;34054;52.100;5.116;2022-08-03T02:44:18;101217.19;;;20.16;83.42
51876;BME280;34054;52.100;5.116;2022-08-03T02:44:57;101207.84;;;20.03;83.37
51876;BME280;34054;52.100;5.116;2022-08-03T02:45:34;101247.13;;;20.32;83.57
51876;BME280;34054;52.100;5.116;2022-08-03T02:46:13;101263.41;;;20.33;83.72
51876;BME280;34054;52.100;5.116;2022-08-03T02:46:52;101244.00;;;20.24;83.57
51876;BME280;34054;52.100;5.116;2022-08-03T02:47:27;101245.78;;;20.20;84.07
51876;BME280;34054;52.100;5.116;2022-08-03T02:48:03;101227.50;;;20.11;83.91
51876;BME280;34054;52.100;5.116;2022-08-03T02:48:37;101253.59;;;20.27;84.03
51876;BME280;34054;52.100;5.116;2022-08-03T02:49:13;101208.16;;;20.02;83.92
51876;BME280;34054;52.100;5.116;2022-08-03T02:49:49;101259.88;;;20.42;83.95
51876;BME280;34054;52.100;5.116;2022-08-03T02:50:25;101250.97;;;20.45;83.32
51876;BME280;34054;52.100;5.116;2022-08-03T02:50:58;101215.38;;;20.12;83.62
51876;BME280;34054;52.100;5.116;2022-08-03T02:51:35;101250.78;;;20.41;83.68
51876;BME280;34054;52.100;5.116;2022-08-03T02:52:10;101259.31;;;20.53;83.11
51876;BME280;34054;52.100;5.116;2022-08-03T02:52:45;101247.25;;;20.49;82.96
51876;BME280;34054;52.100;5.116;2022-08-03T02:53:20;101261.50;;;20.65;82.71
51876;BME280;34054;52.100;5.116;2022-08-03T02:53:55;101255.44;;;20.54;82.88
51876;BME280;34054;52.100;5.116;2022-08-03T02:54:31;101265.63;;;20.54;83.33
51876;BME280;34054;52.100;5.116;2022-08-03T02:55:08;101252.84;;;20.58;83.18
51876;BME280;34054;52.100;5.116;2022-08-03T02:55:42;101240.50;;;20.55;82.86
51876;BME280;34054;52.100;5.116;2022-08-03T02:56:17;101255.03;;;20.47;82.91
51876;BME280;34054;52.100;5.116;2022-08-03T02:56:53;101250.53;;;20.29;83.50
51876;BME280;34054;52.100;5.116;2022-08-03T02:57:29;101249.66;;;20.19;83.98
51876;BME280;34054;52.100;5.116;2022-08-03T02:58:04;101250.59;;;20.15;84.15
51876;BME280;34054;52.100;5.116;2022-08-03T02:58:39;101236.38;;;20.21;84.10
51876;BME280;34054;52.100;5.116;2022-08-03T02:59:16;101223.38;;;20.22;83.64
51876;BME280;34054;52.100;5.116;2022-08-03T02:59:50;101262.13;;;20.39;83.46
51876;BME280;34054;52.100;5.116;2022-08-03T03:00:26;101262.19;;;20.26;83.73
51876;BME280;34054;52.100;5.116;2022-08-03T03:00:59;101254.97;;;20.16;84.36
51876;BME280;34054;52.100;5.116;2022-08-03T03:01:34;101233.97;;;20.06;84.56
51876;BME280;34054;52.100;5.116;2022-08-03T03:02:08;101247.00;;;20.14;84.67
51876;BME280;34054;52.100;5.116;2022-08-03T03:02:42;101254.72;;;20.26;84.06
51876;BME280;34054;52.100;5.116;2022-08-03T03:03:15;101254.66;;;20.17;84.29
51876;BME280;34054;52.100;5.116;2022-08-03T03:03:48;101255.78;;;20.16;84.33
51876;BME280;34054;52.100;5.116;2022-08-03T03:04:22;101250.66;;;20.23;84.29
51876;BME280;34054;52.100;5.116;2022-08-03T03:04:55;101249.56;;;20.11;84.79
51876;BME280;34054;52.100;5.116;2022-08-03T03:05:29;101252.38;;;19.97;85.23
51876;BME280;34054;52.100;5.116;2022-08-03T03:06:02;101253.00;;;19.93;85.47
51876;BME280;34054;52.100;5.116;2022-08-03T03:06:37;101251.75;;;20.00;85.60